createdAt,value
2023-03-19T00:00:29.040Z,12.94
2023-03-19T00:02:56.310Z,12.94
2023-03-19T00:05:23.269Z,12.81
2023-03-19T00:07:52.950Z,12.83
2023-03-19T00:10:19.719Z,12.93
2023-03-19T00:12:46.650Z,12.91
2023-03-19T00:15:16.141Z,12.89
2023-03-19T00:17:43.372Z,12.91
2023-03-19T00:20:11.939Z,12.91
2023-03-19T00:22:39.795Z,12.77
2023-03-19T00:25:08.298Z,12.85
2023-03-19T00:27:35.769Z,12.80
2023-03-19T00:30:02.700Z,12.80
2023-03-19T00:32:30.171Z,12.80
2023-03-19T00:34:57.150Z,12.77
2023-03-19T00:37:23.866Z,12.67
2023-03-19T00:39:50.649Z,12.72
2023-03-19T00:42:17.877Z,12.66
2023-03-19T00:44:44.587Z,12.61
2023-03-19T00:47:11.438Z,12.65
2023-03-19T00:49:38.298Z,12.63
2023-03-19T00:52:05.164Z,12.61
2023-03-19T00:54:32.632Z,12.54
2023-03-19T00:56:59.526Z,12.37
2023-03-19T00:59:26.474Z,12.31
2023-03-19T01:01:54.548Z,12.43
2023-03-19T01:04:21.969Z,12.39
2023-03-19T01:06:48.996Z,12.25
2023-03-19T01:09:16.067Z,12.15
2023-03-19T01:11:42.929Z,12.32
2023-03-19T01:14:09.804Z,12.16
2023-03-19T01:16:36.869Z,12.30
2023-03-19T01:19:03.934Z,12.28
2023-03-19T01:21:32.438Z,11.94
2023-03-19T01:23:59.175Z,12.29
2023-03-19T01:26:26.350Z,12.08
2023-03-19T01:28:53.225Z,12.06
2023-03-19T01:31:20.039Z,12.23
2023-03-19T01:33:47.885Z,12.23
2023-03-19T01:36:14.778Z,12.31
2023-03-19T01:38:41.502Z,12.05
2023-03-19T01:41:08.384Z,12.32
2023-03-19T01:43:35.098Z,12.25
2023-03-19T01:46:03.231Z,12.16
2023-03-19T01:48:54.854Z,12.06
2023-03-19T01:51:24.888Z,11.78
2023-03-19T01:53:56.620Z,11.74
2023-03-19T01:56:27.992Z,11.65
2023-03-19T01:59:01.969Z,11.71
2023-03-19T02:01:29.510Z,11.59
2023-03-19T02:03:56.620Z,11.46
2023-03-19T02:06:23.395Z,11.20
2023-03-19T02:08:50.366Z,11.28
2023-03-19T02:11:17.179Z,11.37
2023-03-19T02:13:43.970Z,11.41
2023-03-19T02:16:11.049Z,11.48
2023-03-19T02:18:37.905Z,11.55
2023-03-19T02:21:12.250Z,11.51
2023-03-19T02:23:47.819Z,11.47
2023-03-19T02:26:15.733Z,11.47
2023-03-19T02:28:44.163Z,11.25
2023-03-19T02:31:11.495Z,11.42
2023-03-19T02:33:38.355Z,11.14
2023-03-19T02:36:06.521Z,11.51
2023-03-19T02:38:34.029Z,11.62
2023-03-19T02:41:01.654Z,11.68
2023-03-19T02:43:29.784Z,11.67
2023-03-19T02:45:56.640Z,11.68
2023-03-19T02:48:23.810Z,11.86
2023-03-19T02:50:50.964Z,11.84
2023-03-19T02:53:17.731Z,11.81
2023-03-19T02:55:44.587Z,11.90
2023-03-19T02:58:11.444Z,11.95
2023-03-19T03:00:38.329Z,11.88
2023-03-19T03:03:06.826Z,11.72
2023-03-19T03:05:33.975Z,11.62
2023-03-19T03:08:00.828Z,11.60
2023-03-19T03:10:27.757Z,11.58
2023-03-19T03:12:54.796Z,11.57
2023-03-19T03:15:21.831Z,11.42
2023-03-19T03:17:48.790Z,11.47
2023-03-19T03:20:17.790Z,11.35
2023-03-19T03:22:44.651Z,11.66
2023-03-19T03:25:11.551Z,11.62
2023-03-19T03:27:38.462Z,11.54
2023-03-19T03:30:08.199Z,11.70
2023-03-19T03:32:38.241Z,11.57
2023-03-19T03:35:06.253Z,11.78
2023-03-19T03:37:34.314Z,11.78
2023-03-19T03:40:07.011Z,11.78
2023-03-19T03:42:34.384Z,11.77
2023-03-19T03:45:01.139Z,11.76
2023-03-19T03:47:27.942Z,11.69
2023-03-19T03:49:54.659Z,11.67
2023-03-19T03:52:21.452Z,11.10
2023-03-19T03:54:49.532Z,11.65
2023-03-19T03:57:16.300Z,11.59
2023-03-19T03:59:43.096Z,11.56
2023-03-19T04:02:10.600Z,11.51
2023-03-19T04:04:37.374Z,11.47
2023-03-19T04:07:04.422Z,11.44
2023-03-19T04:09:31.548Z,11.39
2023-03-19T04:11:58.277Z,11.35
2023-03-19T04:14:25.249Z,11.12
2023-03-19T04:16:52.329Z,11.26
2023-03-19T04:19:19.417Z,11.22
2023-03-19T04:21:46.927Z,11.17
2023-03-19T04:24:14.502Z,11.13
2023-03-19T04:26:41.299Z,11.08
2023-03-19T04:29:08.877Z,10.83
2023-03-19T04:31:35.698Z,10.82
2023-03-19T04:34:02.773Z,11.04
2023-03-19T04:36:29.579Z,11.01
2023-03-19T04:38:57.136Z,10.95
2023-03-19T04:41:24.026Z,10.91
2023-03-19T04:43:50.904Z,11.03
2023-03-19T04:46:17.769Z,10.93
2023-03-19T04:48:45.646Z,10.98
2023-03-19T04:51:12.405Z,11.06
2023-03-19T04:53:40.127Z,10.85
2023-03-19T04:56:08.074Z,11.01
2023-03-19T04:58:35.108Z,11.04
2023-03-19T05:01:02.336Z,11.00
2023-03-19T05:03:31.314Z,10.99
2023-03-19T05:05:58.229Z,10.84
2023-03-19T05:08:25.163Z,10.83
2023-03-19T05:10:51.937Z,10.96
2023-03-19T05:13:21.411Z,10.78
2023-03-19T05:15:48.749Z,10.88
2023-03-19T05:18:15.545Z,10.89
2023-03-19T05:20:42.838Z,10.67
2023-03-19T05:23:09.720Z,10.76
2023-03-19T05:25:36.444Z,10.74
2023-03-19T05:28:04.187Z,10.77
2023-03-19T05:30:31.959Z,10.66
2023-03-19T05:32:59.831Z,10.74
2023-03-19T05:35:27.830Z,10.28
2023-03-19T05:37:54.761Z,10.70
2023-03-19T05:40:22.311Z,10.56
2023-03-19T05:42:49.184Z,10.52
2023-03-19T05:45:17.598Z,10.67
2023-03-19T05:47:45.049Z,10.67
2023-03-19T05:50:12.390Z,10.64
2023-03-19T05:52:39.246Z,10.63
2023-03-19T05:55:06.923Z,10.47
2023-03-19T05:57:33.634Z,10.60
2023-03-19T06:00:00.371Z,10.58
2023-03-19T06:02:27.376Z,10.55
2023-03-19T06:04:54.227Z,10.55
2023-03-19T06:07:21.192Z,10.60
2023-03-19T06:09:48.015Z,10.64
2023-03-19T06:12:14.843Z,10.66
2023-03-19T06:14:41.664Z,10.68
2023-03-19T06:17:09.633Z,10.72
2023-03-19T06:19:36.493Z,10.73
2023-03-19T06:22:03.257Z,10.73
2023-03-19T06:24:30.892Z,10.59
2023-03-19T06:26:57.799Z,10.75
2023-03-19T06:29:24.630Z,10.73
2023-03-19T06:31:51.713Z,10.73
2023-03-19T06:34:18.900Z,10.67
2023-03-19T06:36:45.812Z,10.67
2023-03-19T06:39:13.122Z,10.64
2023-03-19T06:41:40.084Z,10.54
2023-03-19T06:44:06.999Z,10.58
2023-03-19T06:46:33.807Z,10.59
2023-03-19T06:49:00.950Z,10.64
2023-03-19T06:51:28.009Z,10.67
2023-03-19T06:53:55.165Z,10.41
2023-03-19T06:56:22.139Z,10.75
2023-03-19T06:58:48.918Z,10.78
2023-03-19T07:01:16.831Z,10.78
2023-03-19T07:03:43.771Z,10.79
2023-03-19T07:06:10.621Z,10.76
2023-03-19T07:08:37.432Z,10.71
2023-03-19T07:11:05.664Z,10.64
2023-03-19T07:13:33.277Z,10.60
2023-03-19T07:16:00.554Z,10.42
2023-03-19T07:18:27.368Z,10.39
2023-03-19T07:20:54.166Z,10.61
2023-03-19T07:23:20.996Z,10.66
2023-03-19T07:25:47.852Z,10.53
2023-03-19T07:28:14.821Z,10.73
2023-03-19T07:30:41.674Z,10.55
2023-03-19T07:33:08.606Z,10.96
2023-03-19T07:35:35.575Z,11.01
2023-03-19T07:38:02.990Z,10.93
2023-03-19T07:40:29.858Z,10.79
2023-03-19T07:42:56.599Z,10.66
2023-03-19T07:45:23.520Z,9.92
2023-03-19T07:47:51.671Z,10.12
2023-03-19T07:50:18.616Z,10.10
2023-03-19T07:52:49.342Z,9.54
2023-03-19T07:55:16.183Z,9.24
2023-03-19T07:57:43.027Z,9.46
2023-03-19T08:00:10.881Z,9.44
2023-03-19T08:02:37.628Z,9.31
2023-03-19T08:05:04.924Z,9.33
2023-03-19T08:07:32.235Z,9.48
2023-03-19T08:09:58.985Z,9.60
2023-03-19T08:12:26.170Z,9.60
2023-03-19T08:14:53.052Z,9.94
2023-03-19T08:17:19.886Z,10.37
2023-03-19T08:19:47.081Z,10.60
2023-03-19T08:22:13.968Z,10.70
2023-03-19T08:24:40.970Z,11.02
2023-03-19T08:27:08.226Z,10.77
2023-03-19T08:29:35.242Z,10.40
2023-03-19T08:32:02.072Z,10.71
2023-03-19T08:34:28.915Z,10.27
2023-03-19T08:36:55.955Z,9.81
2023-03-19T08:39:22.694Z,9.53
2023-03-19T08:41:49.466Z,9.42
2023-03-19T08:44:16.536Z,9.36
2023-03-19T08:46:43.331Z,9.36
2023-03-19T08:49:10.102Z,9.21
2023-03-19T08:51:36.959Z,8.83
2023-03-19T08:54:03.814Z,9.23
2023-03-19T08:56:30.596Z,9.65
2023-03-19T08:58:57.741Z,9.80
2023-03-19T09:01:24.601Z,9.97
2023-03-19T09:03:51.369Z,10.10
2023-03-19T09:06:18.246Z,10.14
2023-03-19T09:08:45.052Z,10.57
2023-03-19T09:11:11.900Z,10.73
2023-03-19T09:13:39.013Z,10.91
2023-03-19T09:16:06.781Z,10.94
2023-03-19T09:18:34.204Z,11.17
2023-03-19T09:21:01.262Z,11.48
2023-03-19T09:23:28.054Z,11.80
2023-03-19T09:25:54.791Z,12.09
2023-03-19T09:28:22.824Z,12.23
2023-03-19T09:30:50.060Z,12.52
2023-03-19T09:33:17.331Z,12.67
2023-03-19T09:35:44.282Z,12.76
2023-03-19T09:38:11.127Z,13.10
2023-03-19T09:41:10.992Z,13.62
2023-03-19T09:43:54.483Z,14.37
2023-03-19T09:46:23.942Z,14.98
2023-03-19T09:49:04.051Z,15.35
2023-03-19T09:51:36.478Z,15.87
2023-03-19T09:54:18.340Z,16.09
2023-03-19T09:56:45.182Z,16.21
2023-03-19T09:59:12.078Z,16.26
2023-03-19T10:01:39.196Z,16.29
2023-03-19T10:04:24.820Z,16.83
2023-03-19T10:06:52.135Z,16.86
2023-03-19T10:09:21.871Z,17.58
2023-03-19T10:12:09.958Z,17.90
2023-03-19T10:14:55.280Z,18.39
2023-03-19T10:17:27.880Z,18.62
2023-03-19T10:20:01.640Z,18.92
2023-03-19T10:22:36.895Z,19.48
2023-03-19T10:25:05.022Z,19.87
2023-03-19T10:27:31.729Z,20.00
2023-03-19T10:29:58.589Z,20.58
2023-03-19T10:32:38.689Z,20.80
2023-03-19T10:35:10.130Z,20.98
2023-03-19T10:37:38.142Z,21.26
2023-03-19T10:40:11.875Z,21.48
2023-03-19T10:43:18.352Z,21.65
2023-03-19T10:45:45.378Z,21.87
2023-03-19T10:48:18.784Z,22.07
2023-03-19T10:50:58.347Z,22.20
2023-03-19T10:53:35.169Z,22.26
2023-03-19T10:56:07.742Z,22.26
2023-03-19T10:58:35.956Z,22.48
2023-03-19T11:01:10.000Z,22.71
2023-03-19T11:03:53.323Z,22.90
2023-03-19T11:06:28.263Z,22.88
2023-03-19T11:09:10.829Z,23.04
2023-03-19T11:11:50.692Z,23.05
2023-03-19T11:14:22.606Z,22.84
2023-03-19T11:17:08.712Z,22.81
2023-03-19T11:19:42.313Z,22.86
2023-03-19T11:22:38.686Z,22.83
2023-03-19T11:25:38.964Z,23.24
2023-03-19T11:28:26.314Z,23.37
2023-03-19T11:30:59.355Z,23.69
2023-03-19T11:33:27.207Z,23.74
2023-03-19T11:36:14.132Z,23.54
2023-03-19T11:39:11.866Z,23.67
2023-03-19T11:41:58.777Z,24.01
2023-03-19T11:44:42.459Z,24.28
2023-03-19T11:47:33.091Z,24.33
2023-03-19T11:50:18.786Z,24.80
2023-03-19T11:53:00.660Z,25.01
2023-03-19T11:55:34.053Z,25.16
2023-03-19T11:58:16.263Z,25.31
2023-03-19T12:00:57.463Z,25.13
2023-03-19T12:03:59.275Z,25.29
2023-03-19T12:06:41.506Z,25.34
2023-03-19T12:09:37.396Z,25.38
2023-03-19T12:12:07.304Z,25.43
2023-03-19T12:14:49.831Z,25.46
2023-03-19T12:17:35.004Z,25.36
2023-03-19T12:20:12.205Z,25.28
2023-03-19T12:22:57.048Z,25.13
2023-03-19T12:25:48.108Z,25.18
2023-03-19T12:28:24.357Z,25.10
2023-03-19T12:31:26.469Z,24.69
2023-03-19T12:34:34.057Z,24.72
2023-03-19T12:37:21.606Z,24.62
2023-03-19T12:40:15.059Z,24.50
2023-03-19T12:42:42.285Z,24.53
2023-03-19T12:45:24.640Z,24.59
2023-03-19T12:47:51.580Z,24.99
2023-03-19T12:50:18.470Z,25.38
2023-03-19T12:52:49.683Z,25.71
2023-03-19T12:55:19.433Z,26.09
2023-03-19T12:57:52.029Z,26.27
2023-03-19T13:00:27.421Z,26.73
2023-03-19T13:03:07.654Z,26.87
2023-03-19T13:05:46.384Z,26.99
2023-03-19T13:08:40.190Z,27.12
2023-03-19T13:11:18.936Z,26.79
2023-03-19T13:13:49.958Z,26.98
2023-03-19T13:16:34.496Z,27.07
2023-03-19T13:19:18.366Z,27.16
2023-03-19T13:21:45.207Z,27.01
2023-03-19T13:24:21.993Z,27.16
2023-03-19T13:26:53.230Z,26.81
2023-03-19T13:29:32.979Z,26.12
2023-03-19T13:32:04.935Z,25.47
2023-03-19T13:34:33.366Z,24.92
2023-03-19T13:37:16.555Z,24.13
2023-03-19T13:39:43.427Z,23.44
2023-03-19T13:42:20.268Z,23.11
2023-03-19T13:44:50.557Z,22.62
2023-03-19T13:47:29.386Z,22.16
2023-03-19T13:50:22.410Z,21.76
2023-03-19T13:52:51.083Z,21.35
2023-03-19T13:55:44.938Z,20.92
2023-03-19T13:58:28.983Z,20.59
2023-03-19T14:00:58.511Z,20.16
2023-03-19T14:03:26.723Z,19.95
2023-03-19T14:05:55.244Z,19.78
2023-03-19T14:08:47.792Z,19.61
2023-03-19T14:11:25.344Z,19.17
2023-03-19T14:13:52.743Z,19.29
2023-03-19T14:16:26.998Z,18.96
2023-03-19T14:18:57.759Z,18.65
2023-03-19T14:21:46.648Z,18.81
2023-03-19T14:24:55.362Z,18.82
2023-03-19T14:27:33.744Z,18.69
2023-03-19T14:30:03.114Z,18.56
2023-03-19T14:32:35.894Z,18.52
2023-03-19T14:35:05.182Z,18.51
2023-03-19T14:37:38.052Z,18.48
2023-03-19T14:40:17.261Z,18.40
2023-03-19T14:42:47.218Z,18.32
2023-03-19T14:45:14.589Z,18.24
2023-03-19T14:47:46.503Z,18.14
2023-03-19T14:50:13.334Z,18.13
2023-03-19T14:53:12.171Z,18.08
2023-03-19T14:55:39.032Z,18.06
2023-03-19T14:58:05.741Z,17.77
2023-03-19T15:00:46.954Z,17.80
2023-03-19T15:03:37.394Z,17.98
2023-03-19T15:06:05.544Z,17.89
2023-03-19T15:08:33.374Z,17.85
2023-03-19T15:11:16.376Z,18.02
2023-03-19T15:14:24.683Z,18.07
2023-03-19T15:17:07.025Z,17.85
2023-03-19T15:19:33.890Z,18.09
2023-03-19T15:22:16.172Z,17.80
2023-03-19T15:24:43.146Z,17.97
2023-03-19T15:27:26.651Z,17.81
2023-03-19T15:29:53.768Z,17.91
2023-03-19T15:32:56.365Z,17.88
2023-03-19T15:36:12.153Z,17.80
2023-03-19T15:38:42.346Z,17.72
2023-03-19T15:41:09.165Z,17.63
2023-03-19T15:43:37.109Z,17.44
2023-03-19T15:46:04.119Z,17.76
2023-03-19T15:48:44.020Z,17.77
2023-03-19T15:51:11.293Z,17.76
2023-03-19T15:53:38.620Z,17.76
2023-03-19T15:56:05.761Z,17.60
2023-03-19T15:58:37.220Z,17.75
2023-03-19T16:01:06.193Z,17.68
2023-03-19T16:03:38.317Z,17.67
2023-03-19T16:06:14.441Z,17.63
2023-03-19T16:08:53.595Z,17.60
2023-03-19T16:11:27.966Z,17.64
2023-03-19T16:14:27.227Z,17.63
2023-03-19T16:17:01.097Z,17.37
2023-03-19T16:19:36.551Z,17.58
2023-03-19T16:22:11.960Z,17.43
2023-03-19T16:24:43.083Z,17.55
2023-03-19T16:27:14.539Z,17.26
2023-03-19T16:29:42.624Z,17.29
2023-03-19T16:32:14.534Z,17.50
2023-03-19T16:35:05.209Z,17.48
2023-03-19T16:37:43.398Z,17.44
2023-03-19T16:40:13.396Z,17.39
2023-03-19T16:43:14.582Z,17.36
2023-03-19T16:45:42.643Z,17.31
2023-03-19T16:48:09.504Z,17.31
2023-03-19T16:50:41.251Z,17.29
2023-03-19T16:53:27.931Z,17.28
2023-03-19T16:55:55.435Z,17.17
2023-03-19T16:58:31.972Z,17.22
2023-03-19T17:00:59.252Z,17.22
2023-03-19T17:03:26.288Z,17.25
2023-03-19T17:05:53.032Z,17.27
2023-03-19T17:08:22.015Z,17.31
2023-03-19T17:10:52.385Z,17.33
2023-03-19T17:13:21.885Z,17.03
2023-03-19T17:15:49.178Z,17.11
2023-03-19T17:18:23.755Z,17.10
2023-03-19T17:20:56.014Z,17.12
2023-03-19T17:23:27.014Z,17.15
2023-03-19T17:25:54.272Z,17.15
2023-03-19T17:28:21.341Z,16.84
2023-03-19T17:30:48.168Z,17.03
2023-03-19T17:33:20.734Z,17.05
2023-03-19T17:35:47.527Z,16.68
2023-03-19T17:38:15.676Z,16.90
2023-03-19T17:40:42.489Z,16.83
2023-03-19T17:43:10.430Z,16.85
2023-03-19T17:45:37.229Z,16.63
2023-03-19T17:48:04.138Z,16.83
2023-03-19T17:50:31.580Z,16.65
2023-03-19T17:52:58.573Z,16.58
2023-03-19T17:55:27.089Z,16.59
2023-03-19T17:57:54.029Z,16.37
2023-03-19T18:00:22.475Z,16.54
2023-03-19T18:02:50.182Z,16.32
2023-03-19T18:05:26.423Z,16.26
2023-03-19T18:07:56.775Z,16.36
2023-03-19T18:10:29.789Z,16.29
2023-03-19T18:13:00.131Z,16.10
2023-03-19T18:15:27.721Z,16.22
2023-03-19T18:17:56.291Z,15.96
2023-03-19T18:20:25.396Z,16.03
2023-03-19T18:22:52.199Z,15.58
2023-03-19T18:25:23.752Z,15.70
2023-03-19T18:27:51.408Z,15.76
2023-03-19T18:30:19.746Z,15.38
2023-03-19T18:32:47.934Z,15.73
2023-03-19T18:35:18.723Z,15.49
2023-03-19T18:37:46.588Z,15.52
2023-03-19T18:40:19.592Z,15.55
2023-03-19T18:42:47.167Z,15.49
2023-03-19T18:45:14.191Z,15.40
2023-03-19T18:47:41.689Z,15.10
2023-03-19T18:50:29.592Z,15.23
2023-03-19T18:52:56.745Z,15.13
2023-03-19T18:55:27.126Z,15.04
2023-03-19T18:57:55.337Z,14.70
2023-03-19T19:00:27.764Z,14.88
2023-03-19T19:02:54.798Z,14.76
2023-03-19T19:05:23.830Z,14.55
2023-03-19T19:07:51.401Z,14.64
2023-03-19T19:10:18.295Z,14.78
2023-03-19T19:12:46.455Z,14.72
2023-03-19T19:15:33.540Z,14.67
2023-03-19T19:18:00.852Z,14.57
2023-03-19T19:20:28.843Z,14.52
2023-03-19T19:22:56.018Z,14.56
2023-03-19T19:25:24.514Z,14.50
2023-03-19T19:28:05.843Z,14.47
2023-03-19T19:30:32.718Z,14.18
2023-03-19T19:32:59.753Z,14.36
2023-03-19T19:35:27.791Z,14.31
2023-03-19T19:37:55.623Z,14.36
2023-03-19T19:40:25.580Z,14.12
2023-03-19T19:42:52.514Z,14.32
2023-03-19T19:45:28.199Z,14.03
2023-03-19T19:47:55.075Z,13.77
2023-03-19T19:50:25.406Z,14.17
2023-03-19T19:52:52.919Z,14.16
2023-03-19T19:55:19.828Z,14.17
2023-03-19T19:57:47.935Z,14.07
2023-03-19T20:00:29.992Z,13.84
2023-03-19T20:02:57.759Z,14.10
2023-03-19T20:05:26.174Z,13.97
2023-03-19T20:07:55.345Z,14.09
2023-03-19T20:10:23.338Z,13.85
2023-03-19T20:12:54.914Z,14.05
2023-03-19T20:15:29.674Z,14.09
2023-03-19T20:17:56.686Z,14.08
2023-03-19T20:20:23.640Z,14.07
2023-03-19T20:22:51.171Z,14.05
2023-03-19T20:25:19.264Z,13.99
2023-03-19T20:27:46.618Z,14.04
2023-03-19T20:30:45.082Z,13.83
2023-03-19T20:33:12.797Z,14.03
2023-03-19T20:35:39.595Z,13.98
2023-03-19T20:38:06.946Z,14.01
2023-03-19T20:40:43.424Z,14.02
2023-03-19T20:43:28.516Z,13.82
2023-03-19T20:45:58.889Z,14.01
2023-03-19T20:48:25.900Z,13.88
2023-03-19T20:50:52.882Z,13.97
2023-03-19T20:53:19.690Z,13.96
2023-03-19T20:55:47.973Z,13.96
2023-03-19T20:58:27.724Z,13.49
2023-03-19T21:00:54.725Z,13.92
2023-03-19T21:03:22.739Z,13.72
2023-03-19T21:05:55.641Z,13.90
2023-03-19T21:08:43.576Z,13.90
2023-03-19T21:11:21.367Z,13.89
2023-03-19T21:13:49.694Z,13.88
2023-03-19T21:16:25.517Z,13.85
2023-03-19T21:18:54.024Z,13.68
2023-03-19T21:21:29.948Z,13.62
2023-03-19T21:24:08.127Z,13.86
2023-03-19T21:26:38.762Z,13.84
2023-03-19T21:29:07.408Z,13.44
2023-03-19T21:31:34.501Z,13.83
2023-03-19T21:34:01.775Z,13.54
2023-03-19T21:36:29.114Z,13.81
2023-03-19T21:38:56.497Z,13.62
2023-03-19T21:41:28.527Z,13.76
2023-03-19T21:44:10.145Z,13.56
2023-03-19T21:46:37.134Z,13.79
2023-03-19T21:49:04.029Z,13.52
2023-03-19T21:51:30.880Z,13.77
2023-03-19T21:53:58.728Z,13.08
2023-03-19T21:56:32.724Z,13.73
2023-03-19T21:59:04.645Z,13.29
2023-03-19T22:01:31.400Z,13.70
2023-03-19T22:03:58.413Z,13.48
2023-03-19T22:06:25.699Z,13.16
2023-03-19T22:08:54.268Z,13.60
2023-03-19T22:11:28.859Z,13.52
2023-03-19T22:13:59.600Z,13.50
2023-03-19T22:16:26.368Z,13.36
2023-03-19T22:18:53.291Z,13.35
2023-03-19T22:21:21.897Z,13.02
2023-03-19T22:23:49.001Z,13.17
2023-03-19T22:26:31.636Z,13.48
2023-03-19T22:29:00.025Z,13.45
2023-03-19T22:31:26.804Z,13.07
2023-03-19T22:33:53.675Z,13.42
2023-03-19T22:36:20.452Z,12.94
2023-03-19T22:38:48.857Z,13.38
2023-03-19T22:41:18.117Z,13.26
2023-03-19T22:43:45.553Z,12.72
2023-03-19T22:46:13.919Z,13.34
2023-03-19T22:48:42.167Z,13.28
2023-03-19T22:51:11.440Z,13.32
2023-03-19T22:53:38.158Z,13.24
2023-03-19T22:56:05.273Z,13.01
2023-03-19T22:58:41.996Z,12.64
2023-03-19T23:01:21.389Z,13.31
2023-03-19T23:03:49.122Z,13.23
2023-03-19T23:06:29.222Z,13.09
2023-03-19T23:08:57.461Z,13.19
2023-03-19T23:11:24.547Z,13.04
2023-03-19T23:13:51.652Z,13.09
2023-03-19T23:16:23.791Z,13.27
2023-03-19T23:18:50.841Z,13.30
2023-03-19T23:21:18.312Z,13.28
2023-03-19T23:23:45.432Z,13.23
2023-03-19T23:26:32.108Z,13.11
2023-03-19T23:29:03.657Z,12.87
2023-03-19T23:31:30.655Z,13.07
2023-03-19T23:33:57.581Z,12.92
2023-03-19T23:36:24.330Z,12.72
2023-03-19T23:38:51.839Z,12.62
2023-03-19T23:41:24.239Z,12.62
2023-03-19T23:43:52.026Z,12.55
2023-03-19T23:46:19.670Z,12.50
2023-03-19T23:48:46.596Z,12.50
2023-03-19T23:51:14.384Z,12.48
2023-03-19T23:53:41.457Z,12.41
2023-03-19T23:56:18.031Z,12.33
2023-03-19T23:58:44.805Z,12.41
